Time;durP1;ratioP1;P1;durP2;ratioP2;P2;SDS_P1;SDS_P2;PMS_P1;PMS_P2;Temp;Humidity;BMP_temperature;BMP_pressure;BME280_temperature;BME280_humidity;BME280_pressure;Samples;Min_cycle;Max_cycle;Signal;HPM_P1;HPM_P2
2022/03/30 00:00:13;;;;;;;40.80;19.50;;;12.90;98.20;;;;;;4938479;29;20181;-84
2022/03/30 00:02:39;;;;;;;44.20;19.50;;;12.90;98.40;;;;;;4923082;29;20053;-85
2022/03/30 00:05:05;;;;;;;36.15;19.67;;;12.80;98.50;;;;;;4923247;29;20053;-85
2022/03/30 00:07:34;;;;;;;39.22;20.25;;;12.80;98.50;;;;;;4922873;29;20075;-86
2022/03/30 00:10:01;;;;;;;36.05;20.02;;;12.80;98.60;;;;;;4923090;29;20029;-85
2022/03/30 00:12:28;;;;;;;41.53;20.98;;;12.90;98.90;;;;;;4935308;29;20017;-84
2022/03/30 00:14:54;;;;;;;39.67;20.83;;;12.90;98.80;;;;;;4919998;29;20072;-87
2022/03/30 00:17:20;;;;;;;46.75;21.55;;;12.90;98.90;;;;;;4934912;29;20039;-86
2022/03/30 00:19:46;;;;;;;42.22;20.83;;;12.80;99.00;;;;;;4925280;29;20059;-86
2022/03/30 00:22:15;;;;;;;40.03;19.98;;;12.80;99.10;;;;;;4923381;29;20032;-87
2022/03/30 00:24:44;;;;;;;40.13;21.80;;;12.80;99.30;;;;;;4919928;29;20025;-88
2022/03/30 00:27:11;;;;;;;42.25;21.42;;;12.80;99.80;;;;;;4904740;29;20088;-87
2022/03/30 00:29:37;;;;;;;40.75;20.90;;;12.80;99.60;;;;;;4921833;29;20045;-86
2022/03/30 00:32:03;;;;;;;38.42;20.77;;;12.80;99.80;;;;;;4922976;29;20019;-85
2022/03/30 00:34:29;;;;;;;42.50;20.92;;;12.80;99.90;;;;;;4922830;29;20053;-84
2022/03/30 00:36:55;;;;;;;42.10;21.52;;;12.80;99.90;;;;;;4923264;29;20036;-85
2022/03/30 00:39:21;;;;;;;39.08;20.85;;;12.70;99.90;;;;;;4919900;29;20056;-84
2022/03/30 00:41:47;;;;;;;43.60;21.17;;;12.80;99.90;;;;;;4903142;29;20025;-85
2022/03/30 00:44:14;;;;;;;36.95;19.35;;;12.80;99.90;;;;;;4902315;29;20013;-86
2022/03/30 00:46:44;;;;;;;35.78;19.13;;;12.70;99.90;;;;;;4904608;29;20059;-82
2022/03/30 00:49:10;;;;;;;41.17;20.02;;;12.70;99.90;;;;;;4922588;29;20036;-85
2022/03/30 00:51:36;;;;;;;39.38;19.88;;;12.70;99.90;;;;;;4917617;29;20032;-85
2022/03/30 00:54:03;;;;;;;39.00;19.38;;;12.70;99.90;;;;;;4903797;29;20112;-84
2022/03/30 00:56:31;;;;;;;42.30;20.70;;;12.70;99.90;;;;;;4921098;29;20048;-87
2022/03/30 00:58:57;;;;;;;36.60;20.15;;;12.70;99.90;;;;;;4919753;29;20029;-84
2022/03/30 01:01:23;;;;;;;38.78;20.50;;;12.70;99.90;;;;;;4921804;29;20044;-85
2022/03/30 01:03:49;;;;;;;37.78;21.30;;;12.70;99.90;;;;;;4931122;29;20039;-84
2022/03/30 01:06:15;;;;;;;40.17;19.88;;;12.70;99.90;;;;;;4940155;29;20096;-87
2022/03/30 01:08:42;;;;;;;41.78;20.02;;;12.70;99.90;;;;;;4923800;29;20040;-85
2022/03/30 01:11:10;;;;;;;41.80;19.75;;;12.70;99.90;;;;;;4920227;29;20028;-84
2022/03/30 01:13:36;;;;;;;43.50;21.20;;;12.60;99.90;;;;;;4909755;29;20041;-83
2022/03/30 01:16:02;;;;;;;32.90;19.75;;;12.60;99.90;;;;;;4902474;29;20073;-86
2022/03/30 01:18:28;;;;;;;40.95;20.92;;;12.50;99.90;;;;;;4927906;29;20040;-85
2022/03/30 01:20:54;;;;;;;36.90;19.05;;;12.50;99.90;;;;;;4921443;29;20029;-87
2022/03/30 01:23:19;;;;;;;36.50;20.48;;;12.40;99.90;;;;;;4920201;29;20088;-85
2022/03/30 01:25:45;;;;;;;38.83;20.40;;;12.40;99.90;;;;;;4936075;29;20021;-87
2022/03/30 01:28:12;;;;;;;34.20;18.65;;;12.30;99.90;;;;;;4923847;29;20032;-85
2022/03/30 01:33:22;;;;;;;38.83;20.38;;;12.20;99.90;;;;;;4938655;29;20044;-87
2022/03/30 01:35:48;;;;;;;36.20;19.77;;;12.10;99.90;;;;;;4936577;29;20092;-85
2022/03/30 01:38:13;;;;;;;37.38;18.38;;;12.10;99.90;;;;;;4921220;29;20032;-84
2022/03/30 01:40:39;;;;;;;33.97;18.70;;;12.00;99.90;;;;;;4922469;29;20484;-85
2022/03/30 01:43:05;;;;;;;35.70;19.00;;;12.00;99.90;;;;;;4922047;29;20056;-82
2022/03/30 01:45:31;;;;;;;35.33;18.50;;;11.90;99.90;;;;;;4922467;29;20036;-83
2022/03/30 01:47:59;;;;;;;34.67;18.27;;;11.90;99.90;;;;;;4921533;29;20021;-83
2022/03/30 01:50:27;;;;;;;37.35;18.27;;;11.80;99.90;;;;;;4921492;29;20017;-84
2022/03/30 01:52:53;;;;;;;40.30;19.30;;;11.80;99.90;;;;;;4922280;29;20025;-86
2022/03/30 01:55:19;;;;;;;33.72;18.27;;;11.70;99.90;;;;;;4921091;29;20052;-85
2022/03/30 01:57:46;;;;;;;32.15;17.60;;;11.60;99.90;;;;;;4923996;29;20043;-82
2022/03/30 02:00:15;;;;;;;34.88;18.63;;;11.60;99.90;;;;;;4925968;29;20021;-82
2022/03/30 02:02:41;;;;;;;37.40;19.58;;;11.50;99.90;;;;;;4925051;29;20047;-83
2022/03/30 02:05:08;;;;;;;33.10;18.90;;;11.50;99.90;;;;;;4925106;29;20025;-84
2022/03/30 02:07:39;;;;;;;32.28;18.67;;;11.50;99.90;;;;;;4925588;29;20020;-82
2022/03/30 02:10:07;;;;;;;40.10;19.65;;;11.40;99.90;;;;;;4947840;28;20073;-84
2022/03/30 02:12:33;;;;;;;39.47;20.08;;;11.40;99.90;;;;;;4917434;29;20017;-83
2022/03/30 02:14:59;;;;;;;40.72;20.10;;;11.30;99.90;;;;;;4924942;29;20033;-82
2022/03/30 02:17:27;;;;;;;38.22;19.20;;;11.30;99.90;;;;;;4925081;29;20028;-82
2022/03/30 02:19:56;;;;;;;41.08;20.02;;;11.30;99.90;;;;;;4934911;29;20039;-83
2022/03/30 02:22:22;;;;;;;33.42;18.92;;;11.20;99.90;;;;;;4935094;29;20012;-82
2022/03/30 02:24:50;;;;;;;38.08;20.20;;;11.20;99.90;;;;;;4929858;29;20044;-82
2022/03/30 02:27:19;;;;;;;37.28;19.73;;;11.10;99.90;;;;;;4914851;29;20028;-83
2022/03/30 02:29:47;;;;;;;42.40;20.50;;;11.10;99.90;;;;;;4906580;29;20029;-84
2022/03/30 02:32:13;;;;;;;37.42;19.50;;;11.10;99.90;;;;;;4915876;29;20076;-82
2022/03/30 02:34:39;;;;;;;44.88;21.65;;;11.10;99.90;;;;;;4924927;29;20032;-83
2022/03/30 02:37:05;;;;;;;41.97;20.00;;;11.10;99.90;;;;;;4924378;29;20040;-82
2022/03/30 02:39:31;;;;;;;41.88;20.95;;;11.10;99.90;;;;;;4908456;29;20033;-82
2022/03/30 02:41:56;;;;;;;43.38;20.83;;;11.10;99.90;;;;;;4924011;29;20037;-81
2022/03/30 02:44:22;;;;;;;41.45;20.90;;;11.10;99.90;;;;;;4921549;29;20041;-84
2022/03/30 02:46:49;;;;;;;41.40;20.02;;;11.10;99.90;;;;;;4922127;29;20104;-87
2022/03/30 02:49:15;;;;;;;36.45;19.98;;;11.10;99.90;;;;;;4917591;29;20067;-82
2022/03/30 02:51:40;;;;;;;38.00;20.80;;;11.10;99.90;;;;;;4924803;29;20104;-84
2022/03/30 02:54:06;;;;;;;43.65;21.98;;;11.10;99.90;;;;;;4921339;29;20059;-85
2022/03/30 02:56:33;;;;;;;40.97;21.33;;;11.10;99.90;;;;;;4909787;29;20092;-86
2022/03/30 02:58:59;;;;;;;42.08;21.20;;;11.10;99.90;;;;;;4907571;29;20043;-85
2022/03/30 03:01:25;;;;;;;38.50;21.48;;;11.10;99.90;;;;;;4907599;29;20020;-85
2022/03/30 03:03:51;;;;;;;42.95;21.38;;;11.10;99.90;;;;;;4907793;29;20032;-83
2022/03/30 03:06:17;;;;;;;38.70;20.77;;;11.10;99.90;;;;;;4914993;29;20031;-85
2022/03/30 03:08:42;;;;;;;39.58;20.50;;;11.10;99.90;;;;;;4914561;29;20377;-85
2022/03/30 03:11:10;;;;;;;49.20;21.23;;;11.10;99.90;;;;;;4908453;29;20048;-86
2022/03/30 03:13:36;;;;;;;39.75;20.60;;;11.10;99.90;;;;;;4904728;29;20037;-83
2022/03/30 03:16:02;;;;;;;41.13;20.58;;;11.00;99.90;;;;;;4904192;29;20016;-85
2022/03/30 03:18:27;;;;;;;37.72;21.15;;;11.00;99.90;;;;;;4910399;29;20028;-85
2022/03/30 03:20:53;;;;;;;41.83;20.58;;;11.00;99.90;;;;;;4913948;29;20084;-86
2022/03/30 03:23:19;;;;;;;39.65;21.48;;;11.00;99.90;;;;;;4917566;29;20032;-86
2022/03/30 03:25:46;;;;;;;45.65;21.60;;;11.00;99.90;;;;;;4913374;29;20045;-85
2022/03/30 03:28:13;;;;;;;44.80;21.30;;;10.90;99.90;;;;;;4913349;29;20028;-85
2022/03/30 03:30:40;;;;;;;47.85;22.40;;;10.90;99.90;;;;;;4915347;29;20024;-87
2022/03/30 03:33:07;;;;;;;38.75;22.20;;;10.90;99.90;;;;;;4910376;29;20033;-85
2022/03/30 03:35:33;;;;;;;42.58;22.05;;;10.90;99.90;;;;;;4917821;29;20028;-83
2022/03/30 03:38:00;;;;;;;43.83;22.25;;;10.90;99.90;;;;;;4922542;29;20845;-83
2022/03/30 03:40:27;;;;;;;44.65;22.05;;;10.90;99.90;;;;;;4921371;29;20056;-82
2022/03/30 03:42:53;;;;;;;39.40;22.63;;;10.90;99.90;;;;;;4912695;29;20040;-86
2022/03/30 03:45:19;;;;;;;41.33;22.30;;;10.90;99.90;;;;;;4918160;29;20029;-84
2022/03/30 03:47:46;;;;;;;43.63;21.67;;;10.90;99.90;;;;;;4922043;29;20040;-86
2022/03/30 03:50:12;;;;;;;42.63;21.50;;;10.90;99.90;;;;;;4918097;29;20039;-84
2022/03/30 03:52:38;;;;;;;43.55;23.50;;;10.90;99.90;;;;;;4899945;29;20092;-84
2022/03/30 03:55:05;;;;;;;43.42;23.08;;;11.00;99.90;;;;;;4924466;23;20975;-82
2022/03/30 03:57:32;;;;;;;38.65;22.13;;;11.00;99.90;;;;;;4912204;29;20106;-82
2022/03/30 03:59:58;;;;;;;44.63;22.30;;;11.00;99.90;;;;;;4913646;29;20433;-81
2022/03/30 04:02:24;;;;;;;38.30;21.38;;;11.00;99.90;;;;;;4913988;29;20037;-84
2022/03/30 04:04:49;;;;;;;40.72;22.15;;;11.00;99.90;;;;;;4918748;29;20072;-83
2022/03/30 04:07:15;;;;;;;43.30;22.50;;;11.00;99.90;;;;;;4918413;29;20035;-82
2022/03/30 04:09:41;;;;;;;43.05;21.73;;;10.90;99.90;;;;;;4918205;29;20043;-82
2022/03/30 04:12:07;;;;;;;39.47;22.13;;;10.90;99.90;;;;;;4914932;29;20027;-83
2022/03/30 04:14:33;;;;;;;42.15;21.30;;;10.90;99.90;;;;;;4914240;29;20035;-83
2022/03/30 04:16:59;;;;;;;46.55;22.48;;;10.80;99.90;;;;;;4913793;29;20052;-82
2022/03/30 04:19:25;;;;;;;44.25;22.48;;;10.80;99.90;;;;;;4914804;29;20025;-82
2022/03/30 04:21:51;;;;;;;40.65;22.02;;;10.80;99.90;;;;;;4914102;29;20033;-81
2022/03/30 04:24:17;;;;;;;41.25;22.17;;;10.80;99.90;;;;;;4908743;29;20020;-82
2022/03/30 04:26:43;;;;;;;45.05;22.77;;;10.80;99.90;;;;;;4909565;29;20032;-80
2022/03/30 04:29:09;;;;;;;47.70;24.05;;;10.80;99.90;;;;;;4909371;29;20033;-83
2022/03/30 04:31:35;;;;;;;41.03;22.58;;;10.80;99.90;;;;;;4908810;29;20068;-82
2022/03/30 04:34:00;;;;;;;46.45;23.42;;;10.90;99.90;;;;;;4909084;29;20028;-82
2022/03/30 04:36:27;;;;;;;42.08;22.35;;;10.90;99.90;;;;;;4907630;29;20033;-83
2022/03/30 04:38:54;;;;;;;50.47;22.85;;;10.90;99.90;;;;;;4910543;29;20029;-83
2022/03/30 04:41:20;;;;;;;41.22;22.85;;;10.90;99.90;;;;;;4912384;29;20024;-82
2022/03/30 04:43:46;;;;;;;55.38;22.85;;;10.90;99.90;;;;;;4918289;29;20088;-82
2022/03/30 04:46:13;;;;;;;43.33;22.95;;;10.90;99.90;;;;;;4910772;29;20080;-83
2022/03/30 04:48:39;;;;;;;49.22;22.60;;;10.90;99.90;;;;;;4908942;29;20417;-82
2022/03/30 04:51:05;;;;;;;44.17;22.60;;;10.90;99.90;;;;;;4910350;29;20061;-83
2022/03/30 04:53:32;;;;;;;45.40;22.65;;;10.90;99.90;;;;;;4910087;29;20104;-84
2022/03/30 04:55:58;;;;;;;40.75;22.85;;;10.80;99.90;;;;;;4908877;29;20031;-83
2022/03/30 04:58:24;;;;;;;53.15;23.80;;;10.90;99.90;;;;;;4909007;29;20054;-83
2022/03/30 05:00:50;;;;;;;50.78;25.08;;;10.90;99.90;;;;;;4913917;29;20048;-82
2022/03/30 05:03:16;;;;;;;46.00;23.48;;;10.90;99.90;;;;;;4911865;29;20104;-84
2022/03/30 05:05:42;;;;;;;56.22;25.23;;;10.90;99.90;;;;;;4910270;29;20123;-83
2022/03/30 05:08:08;;;;;;;46.78;23.63;;;10.90;99.90;;;;;;4911461;29;20028;-84
2022/03/30 05:10:34;;;;;;;50.60;24.10;;;10.90;99.90;;;;;;4911931;29;20266;-81
2022/03/30 05:13:00;;;;;;;47.25;24.02;;;10.90;99.90;;;;;;4911744;29;20037;-83
2022/03/30 05:15:28;;;;;;;56.33;23.95;;;11.00;99.90;;;;;;4912211;29;20039;-83
2022/03/30 05:17:55;;;;;;;44.70;23.60;;;11.00;99.90;;;;;;4916716;29;20029;-82
2022/03/30 05:20:21;;;;;;;48.55;22.52;;;11.00;99.90;;;;;;4911871;29;20052;-83
2022/03/30 05:22:47;;;;;;;42.13;22.98;;;11.10;99.90;;;;;;4918407;29;20024;-83
2022/03/30 05:25:15;;;;;;;41.10;22.25;;;11.20;99.90;;;;;;4916181;29;20499;-83
2022/03/30 05:27:42;;;;;;;45.70;23.63;;;11.20;99.90;;;;;;4911954;29;20044;-84
2022/03/30 05:30:09;;;;;;;47.67;23.80;;;11.30;99.90;;;;;;4911653;29;20097;-85
2022/03/30 05:32:35;;;;;;;49.03;23.80;;;11.30;99.90;;;;;;4910885;29;20029;-83
2022/03/30 05:35:03;;;;;;;49.28;22.85;;;11.40;99.90;;;;;;4913645;29;20025;-84
2022/03/30 05:37:30;;;;;;;44.40;23.48;;;11.40;99.90;;;;;;4915490;29;20028;-84
2022/03/30 05:39:56;;;;;;;48.55;24.98;;;11.50;99.90;;;;;;4914369;29;20035;-84
2022/03/30 05:42:22;;;;;;;52.20;25.45;;;11.50;99.90;;;;;;4913632;29;20025;-80
2022/03/30 05:44:49;;;;;;;58.65;28.45;;;11.60;99.90;;;;;;4911308;29;20036;-81
2022/03/30 05:47:16;;;;;;;46.38;24.33;;;11.70;99.90;;;;;;4911051;29;20025;-78
2022/03/30 05:49:42;;;;;;;43.72;22.90;;;11.80;99.90;;;;;;4910789;29;20029;-80
2022/03/30 05:52:08;;;;;;;43.85;23.88;;;11.90;99.90;;;;;;4920703;29;20069;-81
2022/03/30 05:54:35;;;;;;;47.58;25.50;;;11.90;99.90;;;;;;4923706;29;20056;-80
2022/03/30 05:57:01;;;;;;;42.55;23.10;;;11.90;99.90;;;;;;4916292;29;20040;-81
2022/03/30 05:59:29;;;;;;;51.45;23.70;;;12.00;99.90;;;;;;4904641;29;20066;-82
2022/03/30 06:01:55;;;;;;;50.17;24.90;;;12.00;99.90;;;;;;4917470;29;20056;-81
2022/03/30 06:04:21;;;;;;;47.38;24.85;;;12.00;99.90;;;;;;4907724;29;20061;-81
2022/03/30 06:06:47;;;;;;;51.70;23.17;;;12.10;99.90;;;;;;4911111;29;20028;-81
2022/03/30 06:09:12;;;;;;;43.78;22.27;;;12.10;99.90;;;;;;4905069;29;20068;-82
2022/03/30 06:11:38;;;;;;;44.38;23.42;;;12.10;99.90;;;;;;4907080;29;20048;-80
2022/03/30 06:14:04;;;;;;;43.00;23.45;;;12.10;99.90;;;;;;4917085;29;20067;-81
2022/03/30 06:16:31;;;;;;;50.33;23.00;;;12.20;99.90;;;;;;4920710;29;20167;-80
2022/03/30 06:18:57;;;;;;;45.72;23.65;;;12.20;99.90;;;;;;4917763;29;20465;-84
2022/03/30 06:21:23;;;;;;;40.90;22.25;;;12.20;99.90;;;;;;4911355;29;20048;-81
2022/03/30 06:23:49;;;;;;;51.95;23.38;;;12.30;99.90;;;;;;4909984;29;20032;-83
2022/03/30 06:26:16;;;;;;;54.13;22.48;;;12.30;99.90;;;;;;4914250;29;20027;-82
2022/03/30 06:28:42;;;;;;;45.65;21.90;;;12.50;99.90;;;;;;4920467;29;20028;-81
2022/03/30 06:31:09;;;;;;;41.95;22.00;;;12.60;99.90;;;;;;4918530;29;20025;-79
2022/03/30 06:33:36;;;;;;;40.63;21.98;;;12.60;99.90;;;;;;4909176;29;20093;-82
2022/03/30 06:36:01;;;;;;;40.55;21.60;;;12.70;99.90;;;;;;4910879;29;20536;-81
2022/03/30 06:38:27;;;;;;;52.28;22.52;;;12.70;99.90;;;;;;4910883;29;20053;-86
2022/03/30 06:40:54;;;;;;;48.65;22.13;;;12.80;99.90;;;;;;4920634;29;20020;-84
2022/03/30 06:43:19;;;;;;;47.75;22.15;;;12.80;99.90;;;;;;4902741;29;20040;-81
2022/03/30 06:45:46;;;;;;;49.53;23.27;;;12.80;99.90;;;;;;4910326;29;20025;-80
2022/03/30 06:48:12;;;;;;;49.25;23.15;;;12.90;99.90;;;;;;4906486;29;20028;-80
2022/03/30 06:50:39;;;;;;;44.90;23.70;;;12.80;99.90;;;;;;4906714;29;20031;-80
2022/03/30 06:53:09;;;;;;;48.60;22.60;;;12.80;99.90;;;;;;4911724;29;20072;-81
2022/03/30 06:55:38;;;;;;;49.03;22.83;;;12.90;99.90;;;;;;4917231;29;20052;-83
2022/03/30 06:58:05;;;;;;;46.90;22.27;;;12.90;99.90;;;;;;4918793;29;20033;-84
2022/03/30 07:00:30;;;;;;;43.30;21.88;;;12.90;99.90;;;;;;4919247;29;20036;-82
2022/03/30 07:02:56;;;;;;;44.60;21.73;;;13.00;99.90;;;;;;4914111;29;20089;-81
2022/03/30 07:05:22;;;;;;;44.83;23.38;;;13.10;99.90;;;;;;4916696;29;20025;-79
2022/03/30 07:10:33;;;;;;;47.15;23.45;;;13.30;99.90;;;;;;4914994;29;20024;-81
2022/03/30 07:13:03;;;;;;;45.28;22.85;;;13.20;99.90;;;;;;4908722;29;20099;-81
2022/03/30 07:15:30;;;;;;;43.63;22.75;;;13.30;99.90;;;;;;4912012;29;20021;-79
2022/03/30 07:17:58;;;;;;;45.38;20.73;;;13.50;99.90;;;;;;4914047;29;20028;-80
2022/03/30 07:20:26;;;;;;;46.95;22.90;;;13.70;99.90;;;;;;4914823;29;20382;-80
2022/03/30 07:22:52;;;;;;;42.03;21.05;;;13.70;99.90;;;;;;4910840;29;20020;-81
2022/03/30 07:25:21;;;;;;;47.53;23.50;;;13.80;99.90;;;;;;4909146;29;20035;-83
2022/03/30 07:27:51;;;;;;;46.92;21.35;;;13.90;99.90;;;;;;4911292;29;20028;-80
2022/03/30 07:30:17;;;;;;;42.88;22.08;;;14.00;99.70;;;;;;4906997;29;20029;-82
2022/03/30 07:32:45;;;;;;;45.00;21.40;;;14.20;99.50;;;;;;4909686;29;20027;-79
2022/03/30 07:35:18;;;;;;;48.60;22.40;;;14.20;99.00;;;;;;4907360;29;20044;-81
2022/03/30 07:37:45;;;;;;;50.33;22.13;;;14.40;98.50;;;;;;4900147;29;20033;-80
2022/03/30 07:40:15;;;;;;;49.25;22.70;;;14.50;97.50;;;;;;4910501;29;20033;-80
2022/03/30 07:42:41;;;;;;;53.85;22.20;;;14.60;96.70;;;;;;4905201;29;20272;-81
2022/03/30 07:45:08;;;;;;;43.22;22.58;;;14.80;96.50;;;;;;4905661;29;20024;-81
2022/03/30 07:47:34;;;;;;;40.40;20.90;;;14.90;96.40;;;;;;4906531;29;20035;-82
2022/03/30 07:50:00;;;;;;;47.30;22.08;;;15.00;96.10;;;;;;4907785;29;20103;-80
2022/03/30 07:52:26;;;;;;;45.80;21.25;;;15.10;95.60;;;;;;4904876;29;20035;-80
2022/03/30 07:54:54;;;;;;;44.92;21.10;;;15.10;95.30;;;;;;4902867;29;20033;-81
2022/03/30 07:57:26;;;;;;;48.38;22.42;;;15.10;95.00;;;;;;4903821;29;20088;-80
2022/03/30 07:59:57;;;;;;;46.30;21.95;;;15.00;94.80;;;;;;4907884;29;20032;-80
2022/03/30 08:02:24;;;;;;;44.63;21.45;;;15.00;94.90;;;;;;4908621;29;20083;-80
2022/03/30 08:04:50;;;;;;;51.22;20.88;;;15.00;95.10;;;;;;4912129;29;20153;-81
2022/03/30 08:07:18;;;;;;;50.60;22.95;;;15.00;94.90;;;;;;4912857;29;20043;-80
2022/03/30 08:09:44;;;;;;;43.78;22.33;;;14.90;95.00;;;;;;4911552;29;20039;-80
2022/03/30 08:12:12;;;;;;;45.70;22.52;;;14.90;95.30;;;;;;4907409;29;20043;-81
2022/03/30 08:14:38;;;;;;;44.33;21.90;;;14.90;95.00;;;;;;4906496;29;20124;-80
2022/03/30 08:17:05;;;;;;;43.80;21.55;;;14.90;94.90;;;;;;4905133;29;20044;-82
2022/03/30 08:19:31;;;;;;;50.10;21.70;;;14.90;94.70;;;;;;4909490;29;20032;-80
2022/03/30 08:24:46;;;;;;;43.65;21.25;;;14.90;94.80;;;;;;4928456;29;20036;-81
2022/03/30 08:27:14;;;;;;;43.28;20.73;;;15.00;94.20;;;;;;4913374;29;20064;-80
2022/03/30 08:29:40;;;;;;;40.72;19.45;;;14.80;93.90;;;;;;4909883;29;20600;-82
2022/03/30 08:32:06;;;;;;;42.10;20.13;;;14.80;93.20;;;;;;4910139;29;20033;-82
2022/03/30 08:34:34;;;;;;;43.75;19.40;;;14.70;93.10;;;;;;4893487;29;20056;-82
2022/03/30 08:37:00;;;;;;;40.88;19.15;;;14.60;92.80;;;;;;4911834;29;20408;-82
2022/03/30 08:39:26;;;;;;;40.15;18.58;;;14.80;92.80;;;;;;4912866;29;20025;-81
2022/03/30 08:41:53;;;;;;;47.53;19.35;;;14.90;92.50;;;;;;4916413;29;20028;-82
2022/03/30 08:44:20;;;;;;;36.50;19.15;;;15.20;91.90;;;;;;4916343;29;20032;-81
2022/03/30 08:46:46;;;;;;;35.55;18.02;;;15.20;91.50;;;;;;4911759;29;20029;-80
2022/03/30 08:49:13;;;;;;;35.97;17.83;;;15.20;91.00;;;;;;4910918;29;20032;-82
2022/03/30 08:51:41;;;;;;;39.25;17.70;;;15.30;90.80;;;;;;4913276;29;20032;-82
2022/03/30 08:54:12;;;;;;;36.65;17.70;;;15.60;90.40;;;;;;4917054;29;20057;-80
2022/03/30 08:56:39;;;;;;;37.20;17.48;;;15.80;89.70;;;;;;4919883;29;20043;-80
2022/03/30 08:59:12;;;;;;;33.10;18.83;;;15.80;89.20;;;;;;4919275;29;20020;-80
2022/03/30 09:01:40;;;;;;;41.22;18.67;;;15.90;89.10;;;;;;4912058;29;20033;-81
2022/03/30 09:04:09;;;;;;;30.33;16.95;;;15.70;88.70;;;;;;4916121;29;20009;-82
2022/03/30 09:06:39;;;;;;;34.70;18.40;;;15.60;88.10;;;;;;4920752;29;20101;-82
2022/03/30 09:09:06;;;;;;;32.70;16.70;;;15.70;87.90;;;;;;4934864;29;20048;-79
2022/03/30 09:11:41;;;;;;;32.60;16.05;;;15.90;86.80;;;;;;4921444;29;20032;-79
2022/03/30 09:14:15;;;;;;;31.73;15.25;;;16.30;85.70;;;;;;4919343;29;20043;-79
2022/03/30 09:16:41;;;;;;;34.70;17.17;;;16.60;83.60;;;;;;4915428;29;20047;-82
2022/03/30 09:19:09;;;;;;;28.50;15.30;;;17.00;83.00;;;;;;4904879;29;20028;-82
2022/03/30 09:21:42;;;;;;;29.08;16.15;;;17.20;81.50;;;;;;4903055;29;20515;-82
2022/03/30 09:24:08;;;;;;;35.78;15.75;;;17.10;80.60;;;;;;4901017;29;20119;-81
2022/03/30 09:26:35;;;;;;;26.55;13.60;;;17.20;79.20;;;;;;4901727;29;20065;-81
2022/03/30 09:29:01;;;;;;;28.80;13.93;;;17.50;78.00;;;;;;4899717;29;20036;-83
2022/03/30 09:31:27;;;;;;;24.63;13.25;;;18.20;76.80;;;;;;4902771;29;20044;-82
2022/03/30 09:33:53;;;;;;;24.85;12.82;;;18.30;74.70;;;;;;4900839;29;20028;-81
2022/03/30 09:36:29;;;;;;;23.40;12.45;;;18.60;73.70;;;;;;4889664;29;20058;-81
2022/03/30 09:38:55;;;;;;;25.45;12.63;;;19.40;71.80;;;;;;4905776;29;20101;-80
2022/03/30 09:41:21;;;;;;;24.13;12.55;;;19.70;70.40;;;;;;4915572;29;20020;-80
2022/03/30 09:43:47;;;;;;;21.65;12.25;;;19.70;69.50;;;;;;4899540;29;20481;-80
2022/03/30 09:46:15;;;;;;;21.83;12.63;;;19.60;69.30;;;;;;4903542;29;20029;-81
2022/03/30 09:48:56;;;;;;;27.35;14.07;;;19.60;68.60;;;;;;4901999;29;20048;-81
2022/03/30 09:51:29;;;;;;;26.67;13.20;;;19.50;68.50;;;;;;4901676;29;20366;-81
2022/03/30 09:53:55;;;;;;;30.25;13.57;;;19.30;68.80;;;;;;4902733;29;20120;-81
2022/03/30 09:56:24;;;;;;;28.98;14.75;;;19.20;69.40;;;;;;4931369;23;20048;-84
2022/03/30 09:59:01;;;;;;;29.10;14.18;;;18.90;70.20;;;;;;4909231;29;20104;-86
2022/03/30 10:01:33;;;;;;;29.60;13.98;;;18.80;70.00;;;;;;4914538;29;20028;-86
2022/03/30 10:04:02;;;;;;;31.10;14.90;;;18.60;70.50;;;;;;4914743;29;20040;-84
2022/03/30 10:06:33;;;;;;;25.58;14.27;;;18.70;70.70;;;;;;4912780;29;20032;-86
2022/03/30 10:08:59;;;;;;;26.73;13.35;;;18.60;70.40;;;;;;4912329;29;20069;-86
2022/03/30 10:11:28;;;;;;;34.28;14.48;;;18.60;70.50;;;;;;4916256;29;20017;-86
2022/03/30 10:13:56;;;;;;;23.08;14.52;;;18.40;71.10;;;;;;4914061;29;20040;-83
2022/03/30 10:16:23;;;;;;;32.80;14.73;;;18.40;71.10;;;;;;4912883;29;20029;-85
2022/03/30 10:18:51;;;;;;;28.52;14.57;;;18.60;71.60;;;;;;4909027;29;20025;-85
2022/03/30 10:21:45;;;;;;;25.75;14.85;;;18.70;70.80;;;;;;4893461;29;20076;-86
2022/03/30 10:24:44;;;;;;;25.40;15.30;;;18.70;71.30;;;;;;4907707;29;20238;-86
2022/03/30 10:27:23;;;;;;;31.52;15.77;;;18.60;70.90;;;;;;4899333;29;20042;-86
2022/03/30 10:29:54;;;;;;;26.90;15.43;;;18.40;71.50;;;;;;4910741;29;20033;-86
2022/03/30 10:32:24;;;;;;;27.85;14.60;;;18.00;72.70;;;;;;4916618;29;20028;-85
2022/03/30 10:35:11;;;;;;;34.13;15.65;;;17.80;73.40;;;;;;4912208;29;20043;-86
2022/03/30 10:37:42;;;;;;;34.75;15.75;;;17.70;73.60;;;;;;4911684;29;20092;-85
2022/03/30 10:40:16;;;;;;;34.03;15.95;;;17.70;74.40;;;;;;4914901;29;20028;-86
2022/03/30 10:42:45;;;;;;;30.10;15.90;;;17.70;74.30;;;;;;4918882;29;20029;-85
2022/03/30 10:45:26;;;;;;;31.15;16.45;;;17.70;74.10;;;;;;4921341;29;20130;-84
2022/03/30 10:48:09;;;;;;;39.63;17.23;;;17.80;74.40;;;;;;4930704;29;20056;-87
2022/03/30 10:50:39;;;;;;;28.40;15.23;;;18.00;74.00;;;;;;4929603;29;20033;-86
2022/03/30 10:53:31;;;;;;;29.67;15.07;;;18.20;73.60;;;;;;4916804;29;20036;-85
2022/03/30 10:56:09;;;;;;;32.50;17.65;;;18.50;73.40;;;;;;4908307;29;20025;-86
2022/03/30 10:58:36;;;;;;;30.95;16.27;;;18.50;73.20;;;;;;4914062;29;20140;-85
2022/03/30 11:01:22;;;;;;;34.35;16.63;;;18.50;73.80;;;;;;4913723;29;20036;-87
2022/03/30 11:04:03;;;;;;;28.27;16.33;;;18.50;73.70;;;;;;4910799;29;20088;-86
2022/03/30 11:06:38;;;;;;;28.48;15.65;;;18.60;73.80;;;;;;4911142;29;20138;-86
2022/03/30 11:09:07;;;;;;;33.38;16.05;;;18.90;73.80;;;;;;4916480;29;20097;-86
2022/03/30 11:11:40;;;;;;;36.67;16.70;;;19.10;72.90;;;;;;4901248;29;20040;-88
2022/03/30 11:14:26;;;;;;;35.85;18.35;;;19.10;72.90;;;;;;4917115;29;20032;-86
2022/03/30 11:16:58;;;;;;;35.55;16.08;;;19.10;73.10;;;;;;4911019;29;20039;-87
2022/03/30 11:19:32;;;;;;;29.85;16.20;;;19.00;73.60;;;;;;4908643;29;20053;-86
2022/03/30 11:22:11;;;;;;;30.98;17.00;;;19.10;73.30;;;;;;4910943;29;20088;-86
2022/03/30 11:24:45;;;;;;;43.88;23.58;;;19.40;73.40;;;;;;4907403;29;20099;-87
2022/03/30 11:27:11;;;;;;;30.73;16.52;;;19.60;73.20;;;;;;4905174;29;20089;-86
2022/03/30 11:29:53;;;;;;;33.22;16.75;;;20.10;72.40;;;;;;4907746;29;20060;-87
2022/03/30 11:32:19;;;;;;;37.53;18.10;;;20.20;72.00;;;;;;4907129;29;20028;-86
2022/03/30 11:34:52;;;;;;;29.77;16.50;;;20.20;72.10;;;;;;4909055;29;20035;-87
2022/03/30 11:37:19;;;;;;;33.60;16.08;;;20.30;72.10;;;;;;4907522;29;20036;-86
2022/03/30 11:39:49;;;;;;;34.92;17.83;;;20.90;71.10;;;;;;4907408;29;20110;-86
2022/03/30 11:42:21;;;;;;;33.33;17.02;;;20.90;70.50;;;;;;4904991;29;20029;-85
2022/03/30 11:47:36;;;;;;;34.40;17.42;;;22.00;69.30;;;;;;4910701;29;20037;-85
2022/03/30 11:50:03;;;;;;;28.17;17.23;;;22.40;68.20;;;;;;4908050;29;20032;-84
2022/03/30 11:52:29;;;;;;;32.30;16.58;;;22.50;67.90;;;;;;4908086;29;20029;-85
2022/03/30 11:54:56;;;;;;;33.17;17.38;;;22.70;67.40;;;;;;4913244;29;20088;-86
2022/03/30 11:57:22;;;;;;;36.47;17.75;;;22.60;67.00;;;;;;4910831;29;20036;-85
2022/03/30 12:00:00;;;;;;;29.55;17.55;;;22.10;67.60;;;;;;4916621;29;20017;-85
2022/03/30 12:02:27;;;;;;;28.20;17.15;;;21.90;68.00;;;;;;4916987;29;20045;-86
2022/03/30 12:04:54;;;;;;;31.83;17.63;;;21.80;68.60;;;;;;4918804;29;20028;-85
2022/03/30 12:07:21;;;;;;;41.40;19.20;;;21.50;68.90;;;;;;4917963;29;20064;-84
2022/03/30 12:09:48;;;;;;;29.30;16.13;;;21.30;69.30;;;;;;4913801;29;20027;-85
2022/03/30 12:12:35;;;;;;;28.75;16.60;;;21.20;69.50;;;;;;4894122;29;20029;-87
2022/03/30 12:15:06;;;;;;;36.13;17.15;;;21.10;69.50;;;;;;4904096;29;20393;-85
2022/03/30 12:17:34;;;;;;;29.60;16.48;;;21.00;69.50;;;;;;4911873;29;20036;-86
2022/03/30 12:20:02;;;;;;;32.08;16.73;;;20.90;69.90;;;;;;4916479;29;20024;-85
2022/03/30 12:22:29;;;;;;;34.28;16.08;;;20.80;70.00;;;;;;4923182;29;20088;-84
2022/03/30 12:24:55;;;;;;;31.35;16.60;;;20.60;70.20;;;;;;4925820;29;20031;-84
2022/03/30 12:27:24;;;;;;;36.38;19.92;;;20.40;70.60;;;;;;4917906;29;20110;-84
2022/03/30 12:29:55;;;;;;;38.60;16.63;;;20.20;71.00;;;;;;4922819;29;20668;-84
2022/03/30 12:32:26;;;;;;;31.38;15.88;;;20.30;70.90;;;;;;4917754;29;20043;-84
2022/03/30 12:35:12;;;;;;;29.52;15.65;;;20.40;70.40;;;;;;4913249;29;20066;-87
2022/03/30 12:37:41;;;;;;;26.15;14.00;;;20.20;70.90;;;;;;4918478;29;20052;-86
2022/03/30 12:40:16;;;;;;;26.05;14.02;;;20.20;70.90;;;;;;4912491;29;20039;-86
2022/03/30 12:42:44;;;;;;;29.50;15.07;;;20.20;70.60;;;;;;4908287;29;20147;-87